createdAt,value
2022-12-19T00:00:38.935Z,-1.64
2022-12-19T00:03:45.574Z,-1.69
2022-12-19T00:06:48.123Z,-1.64
2022-12-19T00:09:50.863Z,-1.85
2022-12-19T00:12:53.281Z,-1.75
2022-12-19T00:15:55.938Z,-1.60
2022-12-19T00:19:00.971Z,-1.76
2022-12-19T00:22:07.069Z,-1.83
2022-12-19T00:25:12.255Z,-1.81
2022-12-19T00:28:15.354Z,-1.72
2022-12-19T00:31:22.449Z,-1.59
2022-12-19T00:34:25.001Z,-1.73
2022-12-19T00:37:27.633Z,-1.68
2022-12-19T00:40:32.242Z,-1.76
2022-12-19T00:43:35.561Z,-1.72
2022-12-19T00:46:38.936Z,-1.76
2022-12-19T00:49:41.465Z,-1.72
2022-12-19T00:52:44.978Z,-1.87
2022-12-19T00:55:47.499Z,-1.70
2022-12-19T00:58:50.540Z,-1.79
2022-12-19T01:01:53.160Z,-1.84
2022-12-19T01:04:55.750Z,-1.98
2022-12-19T01:07:58.177Z,-1.86
2022-12-19T01:11:00.823Z,-1.89
2022-12-19T01:14:03.189Z,-1.92
2022-12-19T01:17:05.805Z,-1.97
2022-12-19T01:20:09.114Z,-2.02
2022-12-19T01:23:11.914Z,-2.17
2022-12-19T01:26:14.371Z,-2.22
2022-12-19T01:29:17.046Z,-2.04
2022-12-19T01:32:20.411Z,-2.06
2022-12-19T01:35:23.730Z,-1.84
2022-12-19T01:38:26.779Z,-1.72
2022-12-19T01:41:29.302Z,-1.60
2022-12-19T01:44:31.791Z,-1.54
2022-12-19T01:47:45.221Z,-1.61
2022-12-19T01:51:01.360Z,-1.63
2022-12-19T01:54:10.020Z,-1.61
2022-12-19T01:57:15.719Z,-1.61
2022-12-19T02:00:18.957Z,-1.47
2022-12-19T02:03:33.524Z,-1.50
2022-12-19T02:06:37.637Z,-1.44
2022-12-19T02:09:40.505Z,-1.38
2022-12-19T02:12:45.666Z,-1.22
2022-12-19T02:15:49.198Z,-1.12
2022-12-19T02:19:13.770Z,-1.09
2022-12-19T02:22:25.050Z,-1.09
2022-12-19T02:25:44.178Z,-1.11
2022-12-19T02:29:15.440Z,-1.27
2022-12-19T02:32:47.065Z,-1.33
2022-12-19T02:36:03.823Z,-1.48
2022-12-19T02:39:17.550Z,-1.27
2022-12-19T02:42:27.725Z,-1.33
2022-12-19T02:45:37.145Z,-1.40
2022-12-19T02:48:41.516Z,-1.38
2022-12-19T02:51:44.495Z,-1.47
2022-12-19T02:54:53.987Z,-1.47
2022-12-19T02:58:31.607Z,-1.50
2022-12-19T03:01:47.846Z,-1.46
2022-12-19T03:05:05.376Z,-1.28
2022-12-19T03:08:33.969Z,-1.36
2022-12-19T03:11:40.890Z,-1.35
2022-12-19T03:14:44.623Z,-1.34
2022-12-19T03:17:48.752Z,-1.25
2022-12-19T03:21:04.787Z,-1.17
2022-12-19T03:24:10.069Z,-1.06
2022-12-19T03:27:24.704Z,-1.04
2022-12-19T03:30:29.682Z,-1.08
2022-12-19T03:33:34.899Z,-1.16
2022-12-19T03:36:42.825Z,-1.18
2022-12-19T03:39:49.087Z,-1.21
2022-12-19T03:43:10.402Z,-1.20
2022-12-19T03:46:26.634Z,-1.08
2022-12-19T03:49:29.539Z,-1.09
2022-12-19T03:52:51.317Z,-1.01
2022-12-19T03:56:05.117Z,-1.01
2022-12-19T03:59:13.373Z,-0.99
2022-12-19T04:02:18.291Z,-0.89
2022-12-19T04:05:24.673Z,-1.04
2022-12-19T04:08:29.074Z,-1.05
2022-12-19T04:11:38.799Z,-0.93
2022-12-19T04:14:41.961Z,-0.99
2022-12-19T04:17:51.755Z,-0.90
2022-12-19T04:21:28.011Z,-0.80
2022-12-19T04:24:34.989Z,-0.75
2022-12-19T04:27:40.741Z,-0.68
2022-12-19T04:30:45.180Z,-0.71
2022-12-19T04:33:47.665Z,-0.77
2022-12-19T04:36:51.320Z,-0.87
2022-12-19T04:39:53.937Z,-0.72
2022-12-19T04:42:56.600Z,-0.76
2022-12-19T04:45:59.138Z,-0.73
2022-12-19T04:49:01.948Z,-0.89
2022-12-19T04:52:04.728Z,-1.04
2022-12-19T04:55:07.917Z,-1.08
2022-12-19T04:58:10.393Z,-1.15
2022-12-19T05:01:14.380Z,-1.15
2022-12-19T05:04:17.198Z,-0.83
2022-12-19T05:07:19.688Z,-0.85
2022-12-19T05:10:22.206Z,-0.80
2022-12-19T05:13:24.688Z,-0.90
2022-12-19T05:16:27.238Z,-0.84
2022-12-19T05:19:30.548Z,-0.92
2022-12-19T05:22:33.455Z,-0.91
2022-12-19T05:25:35.974Z,-0.80
2022-12-19T05:28:39.010Z,-0.80
2022-12-19T05:31:41.922Z,-0.95
2022-12-19T05:34:44.435Z,-0.84
2022-12-19T05:37:46.882Z,-0.73
2022-12-19T05:40:50.048Z,-0.68
2022-12-19T05:43:55.054Z,-0.72
2022-12-19T05:46:57.719Z,-0.80
2022-12-19T05:50:00.322Z,-0.69
2022-12-19T05:53:02.764Z,-0.70
2022-12-19T05:56:17.514Z,-0.95
2022-12-19T05:59:20.221Z,-0.79
2022-12-19T06:02:23.166Z,-0.79
2022-12-19T06:05:25.826Z,-0.67
2022-12-19T06:08:28.311Z,-0.81
2022-12-19T06:11:31.075Z,-0.86
2022-12-19T06:14:33.661Z,-0.96
2022-12-19T06:17:36.076Z,-0.86
2022-12-19T06:20:39.229Z,-0.77
2022-12-19T06:23:43.660Z,-0.69
2022-12-19T06:26:46.166Z,-0.62
2022-12-19T06:29:48.718Z,-0.61
2022-12-19T06:32:51.453Z,-0.60
2022-12-19T06:36:00.009Z,-0.36
2022-12-19T06:39:02.765Z,-0.51
2022-12-19T06:42:23.765Z,-0.37
2022-12-19T06:45:26.292Z,-0.37
2022-12-19T06:48:29.356Z,-0.41
2022-12-19T06:51:33.191Z,-0.33
2022-12-19T06:54:35.678Z,-0.26
2022-12-19T06:57:45.352Z,-0.40
2022-12-19T07:00:48.638Z,-0.33
2022-12-19T07:03:51.922Z,-0.44
2022-12-19T07:06:54.761Z,-0.22
2022-12-19T07:09:57.565Z,-0.14
2022-12-19T07:13:00.522Z,-0.16
2022-12-19T07:16:05.328Z,-0.13
2022-12-19T07:19:09.346Z,-0.18
2022-12-19T07:22:14.071Z,-0.18
2022-12-19T07:25:17.853Z,-0.28
2022-12-19T07:28:20.392Z,-0.21
2022-12-19T07:31:22.859Z,-0.24
2022-12-19T07:34:26.286Z,-0.18
2022-12-19T07:37:28.835Z,-0.16
2022-12-19T07:40:33.785Z,-0.20
2022-12-19T07:43:36.338Z,-0.13
2022-12-19T07:46:39.911Z,-0.05
2022-12-19T07:49:42.429Z,-0.20
2022-12-19T07:52:45.414Z,-0.02
2022-12-19T07:55:51.700Z,-0.07
2022-12-19T07:58:54.373Z,-0.12
2022-12-19T08:01:57.153Z,-0.10
2022-12-19T08:05:03.043Z,0.06
2022-12-19T08:08:05.672Z,-0.06
2022-12-19T08:11:22.379Z,0.05
2022-12-19T08:14:25.068Z,0.22
2022-12-19T08:17:27.565Z,0.16
2022-12-19T08:20:30.429Z,0.23
2022-12-19T08:23:33.125Z,0.59
2022-12-19T08:26:40.469Z,0.73
2022-12-19T08:29:45.773Z,0.67
2022-12-19T08:32:48.396Z,0.83
2022-12-19T08:35:51.499Z,0.77
2022-12-19T08:38:54.290Z,0.55
2022-12-19T08:41:56.811Z,0.34
2022-12-19T08:44:59.284Z,0.18
2022-12-19T08:48:01.783Z,0.00
2022-12-19T08:51:07.460Z,-0.02
2022-12-19T08:54:11.896Z,-0.12
2022-12-19T08:57:14.710Z,-0.11
2022-12-19T09:00:18.086Z,0.02
2022-12-19T09:03:22.722Z,0.12
2022-12-19T09:06:27.342Z,0.10
2022-12-19T09:09:30.267Z,0.07
2022-12-19T09:12:32.813Z,0.06
2022-12-19T09:15:35.277Z,0.35
2022-12-19T09:18:45.169Z,0.51
2022-12-19T09:21:50.605Z,0.60
2022-12-19T09:24:53.202Z,0.97
2022-12-19T09:28:26.254Z,1.46
2022-12-19T09:31:21.493Z,1.29
2022-12-19T09:34:36.809Z,1.70
2022-12-19T09:37:40.799Z,2.21
2022-12-19T09:41:26.724Z,2.37
2022-12-19T09:44:47.871Z,2.38
2022-12-19T09:47:55.475Z,2.50
2022-12-19T09:51:13.886Z,3.40
2022-12-19T09:54:37.057Z,3.49
2022-12-19T09:58:13.550Z,4.19
2022-12-19T10:01:22.410Z,5.07
2022-12-19T10:04:29.763Z,5.08
2022-12-19T10:07:53.326Z,5.05
2022-12-19T10:12:43.953Z,5.06
2022-12-19T10:15:03.120Z,5.53
2022-12-19T10:18:34.301Z,5.66
2022-12-19T10:25:12.225Z,6.77
2022-12-19T10:28:38.036Z,7.65
2022-12-19T10:32:04.522Z,7.16
2022-12-19T10:35:18.941Z,7.38
2022-12-19T10:38:28.659Z,7.42
2022-12-19T10:41:32.601Z,6.96
2022-12-19T10:44:40.125Z,6.04
2022-12-19T10:47:42.758Z,4.58
2022-12-19T10:50:45.554Z,4.01
2022-12-19T10:53:55.270Z,3.60
2022-12-19T10:57:22.998Z,3.23
2022-12-19T11:00:26.358Z,4.32
2022-12-19T11:03:29.029Z,4.40
2022-12-19T11:06:37.749Z,4.59
2022-12-19T11:09:42.614Z,4.41
2022-12-19T11:18:14.718Z,5.33
2022-12-19T11:21:15.059Z,5.54
2022-12-19T11:29:25.515Z,4.55
2022-12-19T11:30:09.514Z,3.98
2022-12-19T11:30:43.940Z,4.14
2022-12-19T11:33:33.227Z,4.99
2022-12-19T11:36:55.945Z,4.94
2022-12-19T11:40:03.596Z,5.91
2022-12-19T11:46:51.548Z,4.33
2022-12-19T11:50:02.982Z,5.17
2022-12-19T11:53:19.203Z,4.82
2022-12-19T11:56:24.780Z,3.92
2022-12-19T11:59:38.568Z,3.53
2022-12-19T12:02:43.964Z,3.51
2022-12-19T12:05:48.026Z,4.73
2022-12-19T12:12:15.344Z,4.73
2022-12-19T12:18:41.636Z,3.22
2022-12-19T12:31:01.056Z,2.80
2022-12-19T12:31:22.672Z,4.88
2022-12-19T12:31:23.268Z,6.21
2022-12-19T12:32:03.187Z,7.83
2022-12-19T12:37:03.453Z,5.58
2022-12-19T12:39:02.521Z,6.78
2022-12-19T12:42:26.998Z,5.54
2022-12-19T12:45:41.382Z,4.92
2022-12-19T12:48:52.093Z,3.99
2022-12-19T12:51:55.361Z,3.10
2022-12-19T12:54:58.551Z,2.72
2022-12-19T12:58:01.236Z,2.48
2022-12-19T13:01:11.698Z,2.56
2022-12-19T13:04:15.775Z,2.33
2022-12-19T13:07:50.993Z,2.11
2022-12-19T13:10:56.541Z,1.75
2022-12-19T13:13:59.330Z,1.69
2022-12-19T13:17:21.787Z,1.79
2022-12-19T13:20:24.868Z,1.90
2022-12-19T13:23:30.695Z,1.79
2022-12-19T13:26:50.123Z,1.59
2022-12-19T13:30:03.664Z,1.69
2022-12-19T13:33:08.836Z,1.44
2022-12-19T13:39:54.780Z,1.48
2022-12-19T13:40:20.996Z,1.20
2022-12-19T13:43:49.933Z,1.00
2022-12-19T13:46:56.433Z,0.95
2022-12-19T13:50:04.309Z,0.93
2022-12-19T13:53:21.947Z,0.88
2022-12-19T13:56:24.416Z,0.83
2022-12-19T13:59:33.800Z,0.91
2022-12-19T14:02:45.250Z,0.78
2022-12-19T14:06:17.453Z,0.82
2022-12-19T14:11:26.089Z,0.73
2022-12-19T14:13:57.326Z,0.71
2022-12-19T14:16:43.967Z,0.53
2022-12-19T14:19:50.158Z,0.56
2022-12-19T14:23:00.296Z,0.27
2022-12-19T14:28:26.135Z,0.29
2022-12-19T14:30:29.329Z,0.15
2022-12-19T14:33:44.255Z,-0.11
2022-12-19T14:36:31.470Z,-0.09
2022-12-19T14:39:36.332Z,-0.29
2022-12-19T14:43:59.309Z,-0.40
2022-12-19T14:51:42.914Z,-0.36
2022-12-19T14:54:13.006Z,-0.55
2022-12-19T14:54:46.758Z,-0.53
2022-12-19T14:57:01.047Z,-0.57
2022-12-19T15:01:07.552Z,-0.73
2022-12-19T15:04:52.466Z,-0.70
2022-12-19T15:07:17.752Z,-0.67
2022-12-19T15:11:03.853Z,-0.85
2022-12-19T15:14:54.203Z,-0.81
2022-12-19T15:17:23.883Z,-0.76
2022-12-19T15:20:26.571Z,-0.81
2022-12-19T15:23:29.874Z,-0.76
2022-12-19T15:26:46.095Z,-0.84
2022-12-19T15:29:49.564Z,-0.79
2022-12-19T15:32:52.134Z,-0.75
2022-12-19T15:35:55.934Z,-0.80
2022-12-19T15:38:58.376Z,-0.78
2022-12-19T15:42:01.955Z,-0.88
2022-12-19T15:45:05.035Z,-0.92
2022-12-19T15:48:18.129Z,-0.95
2022-12-19T15:51:20.530Z,-0.99
2022-12-19T15:57:51.235Z,-1.13
2022-12-19T16:01:00.444Z,-1.16
2022-12-19T16:04:03.609Z,-1.21
2022-12-19T16:07:14.823Z,-1.21
2022-12-19T16:10:17.830Z,-1.33
2022-12-19T16:13:24.379Z,-1.33
2022-12-19T16:16:27.158Z,-1.21
2022-12-19T16:19:31.263Z,-1.33
2022-12-19T16:22:33.840Z,-1.25
2022-12-19T16:25:40.993Z,-1.28
2022-12-19T16:28:43.626Z,-1.20
2022-12-19T16:31:46.494Z,-1.03
2022-12-19T16:34:48.981Z,-0.92
2022-12-19T16:37:51.501Z,-0.89
2022-12-19T16:40:54.051Z,-0.79
2022-12-19T16:43:56.543Z,-0.65
2022-12-19T16:46:59.270Z,-0.68
2022-12-19T16:50:07.627Z,-0.66
2022-12-19T16:53:10.160Z,-0.60
2022-12-19T16:56:29.880Z,-0.55
2022-12-19T16:59:41.638Z,-0.53
2022-12-19T17:02:58.724Z,-0.51
2022-12-19T17:06:01.528Z,-0.52
2022-12-19T17:09:04.044Z,-0.48
2022-12-19T17:12:06.822Z,-0.41
2022-12-19T17:15:31.584Z,-0.37
2022-12-19T17:18:37.209Z,-0.40
2022-12-19T17:21:39.608Z,-0.38
2022-12-19T17:24:43.558Z,-0.39
2022-12-19T17:27:46.822Z,-0.40
2022-12-19T17:30:52.495Z,-0.31
2022-12-19T17:33:57.800Z,-0.34
2022-12-19T17:37:03.246Z,-0.43
2022-12-19T17:40:16.720Z,-0.35
2022-12-19T17:43:19.142Z,-0.36
2022-12-19T17:46:25.397Z,-0.42
2022-12-19T17:49:31.069Z,-0.40
2022-12-19T17:52:36.241Z,-0.44
2022-12-19T17:55:38.631Z,-0.30
2022-12-19T17:58:41.154Z,-0.43
2022-12-19T18:01:47.435Z,-0.49
2022-12-19T18:04:51.223Z,-0.64
2022-12-19T18:07:54.533Z,-0.36
2022-12-19T18:11:03.927Z,-0.43
2022-12-19T18:14:06.349Z,-0.38
2022-12-19T18:17:12.706Z,-0.39
2022-12-19T18:20:19.284Z,-0.38
2022-12-19T18:23:23.652Z,-0.32
2022-12-19T18:26:26.566Z,-0.29
2022-12-19T18:29:29.091Z,-0.23
2022-12-19T18:32:34.165Z,-0.31
2022-12-19T18:35:40.676Z,-0.24
2022-12-19T18:38:43.321Z,-0.21
2022-12-19T18:41:48.210Z,-0.31
2022-12-19T18:44:50.688Z,-0.15
2022-12-19T18:47:57.530Z,-0.16
2022-12-19T18:51:02.168Z,-0.08
2022-12-19T18:54:12.817Z,-0.16
2022-12-19T18:57:15.499Z,-0.08
2022-12-19T19:00:20.549Z,-0.17
2022-12-19T19:03:29.171Z,-0.17
2022-12-19T19:06:37.609Z,-0.21
2022-12-19T19:09:41.471Z,-0.12
2022-12-19T19:13:09.849Z,-0.26
2022-12-19T19:16:19.016Z,-0.36
2022-12-19T19:19:22.957Z,-0.29
2022-12-19T19:22:25.882Z,-0.31
2022-12-19T19:25:28.598Z,-0.58
2022-12-19T19:28:31.346Z,-0.30
2022-12-19T19:31:38.670Z,-0.23
2022-12-19T19:34:41.666Z,-0.26
2022-12-19T19:37:45.265Z,-0.24
2022-12-19T19:40:49.235Z,-0.15
2022-12-19T19:43:51.821Z,-0.16
2022-12-19T19:46:54.357Z,-0.18
2022-12-19T19:49:57.244Z,-0.09
2022-12-19T19:53:00.227Z,-0.06
2022-12-19T19:56:04.002Z,-0.22
2022-12-19T19:59:06.643Z,-0.28
2022-12-19T20:02:11.169Z,-0.35
2022-12-19T20:05:13.961Z,-0.27
2022-12-19T20:08:16.680Z,-0.20
2022-12-19T20:11:20.526Z,-0.41
2022-12-19T20:14:23.770Z,-0.16
2022-12-19T20:17:26.673Z,-0.17
2022-12-19T20:20:29.440Z,-0.12
2022-12-19T20:23:32.084Z,-0.14
2022-12-19T20:26:35.324Z,0.02
2022-12-19T20:29:37.955Z,0.01
2022-12-19T20:32:40.571Z,-0.12
2022-12-19T20:35:43.660Z,-0.24
2022-12-19T20:38:47.195Z,0.00
2022-12-19T20:41:51.512Z,-0.12
2022-12-19T20:44:54.247Z,-0.10
2022-12-19T20:47:57.559Z,-0.03
2022-12-19T20:51:01.561Z,-0.27
2022-12-19T20:54:05.202Z,-0.12
2022-12-19T20:57:07.786Z,-0.07
2022-12-19T21:00:11.529Z,-0.16
2022-12-19T21:03:27.785Z,-0.28
2022-12-19T21:06:31.433Z,-0.40
2022-12-19T21:09:33.952Z,-0.35
2022-12-19T21:12:38.000Z,-0.38
2022-12-19T21:15:42.547Z,-0.37
2022-12-19T21:18:47.370Z,-0.62
2022-12-19T21:21:50.188Z,-0.36
2022-12-19T21:24:52.604Z,-0.33
2022-12-19T21:27:55.027Z,-0.46
2022-12-19T21:31:06.864Z,-0.42
2022-12-19T21:34:10.118Z,-0.59
2022-12-19T21:37:12.502Z,-0.39
2022-12-19T21:40:16.083Z,-0.49
2022-12-19T21:43:18.715Z,-0.34
2022-12-19T21:46:23.965Z,-0.38
2022-12-19T21:49:26.613Z,-0.41
2022-12-19T21:52:29.090Z,-0.46
2022-12-19T21:55:31.528Z,-0.45
2022-12-19T21:58:34.462Z,-0.44
2022-12-19T22:01:37.032Z,-0.49
2022-12-19T22:04:39.522Z,-0.41
2022-12-19T22:07:41.968Z,-0.53
2022-12-19T22:10:44.506Z,-0.49
2022-12-19T22:13:48.702Z,-0.43
2022-12-19T22:16:51.593Z,-0.44
2022-12-19T22:19:55.378Z,-0.49
2022-12-19T22:22:58.018Z,-0.54
2022-12-19T22:26:07.261Z,-0.57
2022-12-19T22:29:13.814Z,-0.54
2022-12-19T22:32:17.928Z,-0.59
2022-12-19T22:35:20.518Z,-0.70
2022-12-19T22:38:23.007Z,-0.72
2022-12-19T22:41:26.106Z,-0.65
2022-12-19T22:44:28.583Z,-0.64
2022-12-19T22:47:31.049Z,-0.64
2022-12-19T22:50:33.719Z,-0.54
2022-12-19T22:53:37.745Z,-0.54
2022-12-19T22:56:40.458Z,-0.76
2022-12-19T22:59:43.072Z,-0.78
2022-12-19T23:02:45.649Z,-0.68
2022-12-19T23:05:51.843Z,-0.71
2022-12-19T23:08:54.944Z,-0.74
2022-12-19T23:11:57.394Z,-0.64
2022-12-19T23:14:59.864Z,-0.75
2022-12-19T23:18:02.566Z,-0.79
2022-12-19T23:21:07.675Z,-0.65
2022-12-19T23:24:12.329Z,-0.58
2022-12-19T23:27:14.959Z,-0.66
2022-12-19T23:30:18.566Z,-0.79
2022-12-19T23:33:21.311Z,-0.88
2022-12-19T23:37:00.427Z,-0.66
2022-12-19T23:39:47.055Z,-0.72
2022-12-19T23:42:50.010Z,-0.78
2022-12-19T23:45:52.898Z,-0.66
2022-12-19T23:48:55.803Z,-0.74
2022-12-19T23:52:00.009Z,-0.78
2022-12-19T23:55:02.434Z,-0.62
2022-12-19T23:58:09.621Z,-0.56
